Terminal Aerodrome Forecast
Issued by NWS Wilmington, OH

Current Version | Previous Version | Text Only | Print | Product List | Glossary Off
Versions: 1 2 3 4 5 6 7 8 9 10 11 12 13 14 15 16 17 18 19 20 21 22 23 24 25 26 27 28 29

000
FTUS41 KILN 292002 AAC
TAFCVG
TAF AMD
KCVG 292002Z 2920/3024 24006KT P6SM VCTS SCT040CB BKN200
      TEMPO 2920/2921 2SM -TSRA BR BKN020CB
     FM292300 30006KT P6SM SCT120
     FM300600 34007KT P6SM SCT020
     FM301300 31007KT P6SM FEW030=

USA.gov is the U.S. government's official web portal to all federal, state and local government web resources and services.